Time;durP1;ratioP1;P1;durP2;ratioP2;P2;SDS_P1;SDS_P2;PMS_P1;PMS_P2;Temp;Humidity;BMP_temperature;BMP_pressure;BME280_temperature;BME280_humidity;BME280_pressure;Samples;Min_cycle;Max_cycle;Signal;HPM_P1;HPM_P2
2024/03/21 00:00:15;;;;;;;23.20;14.55;;;13.60;83.90;;;;;;5072227;28;20525;-31
2024/03/21 00:02:46;;;;;;;19.95;13.95;;;13.70;83.90;;;;;;5071985;28;20032;-33
2024/03/21 00:05:14;;;;;;;21.27;14.15;;;13.60;83.90;;;;;;5072077;28;20028;-32
2024/03/21 00:07:46;;;;;;;22.15;13.88;;;13.70;84.00;;;;;;5072045;28;20025;-33
2024/03/21 00:10:19;;;;;;;18.92;13.60;;;13.60;84.00;;;;;;5071794;28;20066;-31
2024/03/21 00:12:48;;;;;;;21.42;14.13;;;13.60;84.00;;;;;;5070320;28;20389;-33
2024/03/21 00:15:15;;;;;;;21.95;14.00;;;13.60;84.00;;;;;;5071962;28;20031;-34
2024/03/21 00:17:41;;;;;;;19.33;14.18;;;13.60;84.10;;;;;;5071113;28;20017;-34
2024/03/21 00:20:11;;;;;;;21.70;13.93;;;13.60;84.10;;;;;;5071655;28;20035;-30
2024/03/21 00:22:37;;;;;;;19.63;13.13;;;13.60;84.10;;;;;;5071495;28;20187;-31
2024/03/21 00:25:04;;;;;;;20.42;14.48;;;13.60;84.10;;;;;;5072114;28;20429;-33
2024/03/21 00:27:31;;;;;;;21.55;14.15;;;13.60;84.10;;;;;;5071617;28;20060;-35
2024/03/21 00:29:57;;;;;;;20.73;13.85;;;13.60;84.10;;;;;;5071394;28;20021;-32
2024/03/21 00:32:22;;;;;;;20.63;14.25;;;13.70;84.20;;;;;;5071661;28;20122;-31
2024/03/21 00:34:48;;;;;;;20.48;14.05;;;13.70;84.10;;;;;;5071507;28;20032;-34
2024/03/21 00:37:13;;;;;;;20.40;13.60;;;13.70;84.10;;;;;;5071279;28;20116;-31
2024/03/21 00:39:42;;;;;;;21.55;14.00;;;13.70;84.10;;;;;;5071646;28;20025;-36
2024/03/21 00:42:09;;;;;;;19.05;13.48;;;13.70;84.10;;;;;;5071406;28;20025;-31
2024/03/21 00:44:35;;;;;;;20.35;13.52;;;13.70;84.00;;;;;;5071321;28;20021;-31
2024/03/21 00:47:01;;;;;;;21.17;14.70;;;13.70;84.00;;;;;;5071295;28;20027;-31
2024/03/21 00:49:26;;;;;;;22.90;14.98;;;13.70;84.00;;;;;;5071234;28;20473;-44
2024/03/21 00:51:52;;;;;;;22.88;14.82;;;13.60;84.00;;;;;;5071310;28;20066;-43
2024/03/21 00:54:17;;;;;;;22.20;15.20;;;13.60;84.00;;;;;;5071165;28;20024;-44
2024/03/21 00:56:43;;;;;;;21.75;15.48;;;13.60;84.10;;;;;;5071188;28;20028;-43
2024/03/21 00:59:08;;;;;;;21.90;15.18;;;13.60;84.20;;;;;;5071574;28;20488;-45
2024/03/21 01:01:34;;;;;;;22.50;16.25;;;13.50;84.20;;;;;;5071107;28;20481;-45
2024/03/21 01:03:59;;;;;;;23.67;15.80;;;13.50;84.30;;;;;;5071179;28;20473;-44
2024/03/21 01:06:25;;;;;;;22.55;16.42;;;13.50;84.40;;;;;;5070944;28;20036;-45
2024/03/21 01:08:51;;;;;;;23.05;16.58;;;13.50;84.50;;;;;;5071470;28;20113;-44
2024/03/21 01:11:17;;;;;;;25.10;15.68;;;13.40;84.50;;;;;;5071349;28;20097;-44
2024/03/21 01:13:42;;;;;;;27.05;17.27;;;13.40;84.60;;;;;;5071078;28;20444;-44
2024/03/21 01:16:08;;;;;;;28.38;18.63;;;13.30;84.70;;;;;;5071058;28;20477;-43
2024/03/21 01:18:38;;;;;;;23.77;17.60;;;13.20;85.30;;;;;;5070862;28;20020;-44
2024/03/21 01:21:05;;;;;;;27.30;18.40;;;13.20;85.20;;;;;;5070999;28;20469;-45
2024/03/21 01:23:32;;;;;;;26.20;18.15;;;13.10;85.30;;;;;;5071309;28;20021;-43
2024/03/21 01:25:58;;;;;;;25.08;17.60;;;13.10;85.50;;;;;;5071266;28;20469;-45
2024/03/21 01:28:23;;;;;;;23.77;17.05;;;13.00;85.50;;;;;;5071198;28;20353;-42
2024/03/21 01:30:49;;;;;;;25.50;18.13;;;13.00;85.60;;;;;;5073082;28;20029;-41
2024/03/21 01:33:15;;;;;;;24.70;17.63;;;13.00;85.80;;;;;;5074712;28;20082;-44
2024/03/21 01:35:40;;;;;;;26.00;17.88;;;13.00;85.80;;;;;;5074466;28;20071;-44
2024/03/21 01:38:06;;;;;;;25.15;17.60;;;13.00;85.90;;;;;;5074976;28;20077;-44
2024/03/21 01:40:33;;;;;;;23.75;16.75;;;13.00;86.00;;;;;;5074267;28;20665;-36
2024/03/21 01:42:59;;;;;;;22.63;16.38;;;13.10;86.00;;;;;;5074447;28;20027;-36
2024/03/21 01:45:26;;;;;;;25.52;17.00;;;13.10;86.00;;;;;;5074707;28;20477;-35
2024/03/21 01:47:52;;;;;;;23.58;16.55;;;13.10;86.00;;;;;;5074356;28;20021;-34
2024/03/21 01:50:18;;;;;;;23.45;16.23;;;13.10;85.90;;;;;;5074732;28;20027;-35
2024/03/21 01:52:44;;;;;;;24.27;16.95;;;13.10;85.80;;;;;;5072855;28;20499;-35
2024/03/21 01:55:14;;;;;;;26.48;16.73;;;13.20;85.90;;;;;;5074653;28;20025;-34
2024/03/21 01:57:40;;;;;;;25.25;16.77;;;13.10;85.80;;;;;;5074506;28;20396;-35
2024/03/21 02:00:08;;;;;;;23.92;16.40;;;13.10;85.90;;;;;;5074392;28;20109;-36
2024/03/21 02:02:34;;;;;;;26.73;17.17;;;13.10;85.90;;;;;;5074253;28;20079;-35
2024/03/21 02:05:00;;;;;;;25.35;16.98;;;13.10;86.00;;;;;;5074047;28;20023;-36
2024/03/21 02:07:26;;;;;;;25.05;16.38;;;13.00;86.00;;;;;;5074120;28;20021;-36
2024/03/21 02:09:53;;;;;;;25.58;16.40;;;13.00;86.10;;;;;;5074287;28;20025;-34
2024/03/21 02:12:37;;;;;;;24.52;16.45;;;13.00;86.10;;;;;;5073912;28;20444;-34
2024/03/21 02:15:04;;;;;;;21.83;15.85;;;13.00;86.20;;;;;;5073841;28;20511;-35
2024/03/21 02:17:30;;;;;;;22.73;15.70;;;13.00;86.20;;;;;;5074019;28;20048;-35
2024/03/21 02:19:55;;;;;;;23.65;16.17;;;13.00;86.20;;;;;;5073920;28;20056;-36
2024/03/21 02:22:36;;;;;;;23.00;15.13;;;13.00;86.20;;;;;;5073708;28;20031;-35
2024/03/21 02:25:06;;;;;;;21.75;15.55;;;13.00;86.20;;;;;;5073826;28;20025;-34
2024/03/21 02:27:33;;;;;;;23.48;15.57;;;13.00;86.30;;;;;;5073958;28;20025;-35
2024/03/21 02:29:59;;;;;;;23.42;15.77;;;12.90;86.30;;;;;;5074006;28;20042;-36
2024/03/21 02:32:25;;;;;;;24.60;15.57;;;13.00;86.30;;;;;;5073864;28;20054;-36
2024/03/21 02:34:50;;;;;;;21.73;15.45;;;13.00;86.30;;;;;;5073581;28;20044;-35
2024/03/21 02:37:16;;;;;;;21.88;14.32;;;12.90;86.30;;;;;;5072149;28;20055;-36
2024/03/21 02:39:46;;;;;;;21.88;14.50;;;12.90;86.30;;;;;;5073522;28;20027;-36
2024/03/21 02:42:12;;;;;;;23.27;15.52;;;12.90;86.40;;;;;;5072819;28;20028;-35
2024/03/21 02:44:37;;;;;;;22.25;14.77;;;12.80;86.40;;;;;;5072001;28;20055;-44
2024/03/21 02:47:03;;;;;;;20.85;14.80;;;12.80;86.40;;;;;;5073625;28;20013;-34
2024/03/21 02:49:29;;;;;;;22.60;14.80;;;12.80;86.60;;;;;;5073202;28;20059;-34
2024/03/21 02:51:55;;;;;;;20.75;14.77;;;12.70;86.40;;;;;;5073241;28;20021;-35
2024/03/21 02:54:21;;;;;;;19.25;14.38;;;12.70;86.40;;;;;;5073205;28;20036;-35
2024/03/21 02:56:46;;;;;;;20.67;14.60;;;12.70;87.00;;;;;;5073177;28;20036;-36
2024/03/21 02:59:12;;;;;;;21.85;14.05;;;12.70;86.50;;;;;;5073110;28;20024;-36
2024/03/21 03:01:37;;;;;;;19.30;14.35;;;12.70;86.50;;;;;;5072717;28;20028;-36
2024/03/21 03:04:04;;;;;;;18.48;13.65;;;12.70;86.40;;;;;;5072978;28;20531;-35
2024/03/21 03:06:30;;;;;;;20.20;14.70;;;12.60;86.40;;;;;;5073318;28;20027;-35
2024/03/21 03:08:55;;;;;;;20.13;13.43;;;12.60;86.40;;;;;;5073229;28;20016;-36
2024/03/21 03:11:21;;;;;;;18.08;13.60;;;12.60;86.50;;;;;;5073039;28;20016;-35
2024/03/21 03:13:46;;;;;;;20.30;12.98;;;12.50;86.50;;;;;;5072894;28;20077;-36
2024/03/21 03:16:12;;;;;;;20.73;13.38;;;12.50;86.50;;;;;;5072810;28;20065;-35
2024/03/21 03:18:39;;;;;;;22.23;14.05;;;12.50;86.60;;;;;;5072835;28;20035;-36
2024/03/21 03:21:04;;;;;;;20.55;14.60;;;12.50;86.70;;;;;;5072574;28;20052;-34
2024/03/21 03:23:30;;;;;;;21.58;14.48;;;12.40;86.70;;;;;;5072771;28;20055;-34
2024/03/21 03:25:55;;;;;;;20.48;14.68;;;12.40;86.80;;;;;;5072588;28;20095;-35
2024/03/21 03:28:21;;;;;;;19.20;13.55;;;12.40;86.80;;;;;;5072590;28;20083;-35
2024/03/21 03:30:46;;;;;;;21.92;14.05;;;12.40;86.80;;;;;;5072237;28;20112;-36
2024/03/21 03:35:56;;;;;;;21.23;14.95;;;12.30;87.00;;;;;;5072523;28;20106;-36
2024/03/21 03:38:21;;;;;;;22.60;15.40;;;12.20;87.20;;;;;;5072674;28;20037;-36
2024/03/21 03:40:47;;;;;;;21.50;15.55;;;12.10;87.30;;;;;;5071931;28;20095;-36
2024/03/21 03:43:13;;;;;;;20.00;14.15;;;12.00;87.50;;;;;;5072202;28;20017;-37
2024/03/21 03:45:40;;;;;;;19.80;13.90;;;12.00;87.90;;;;;;5072356;28;20025;-36
2024/03/21 03:48:06;;;;;;;22.50;16.05;;;11.90;87.90;;;;;;5072006;28;20051;-36
2024/03/21 03:50:31;;;;;;;23.27;15.45;;;11.90;88.20;;;;;;5072127;28;20059;-33
2024/03/21 03:52:57;;;;;;;23.77;16.23;;;11.90;88.30;;;;;;5071538;28;20437;-35
2024/03/21 03:55:22;;;;;;;21.48;14.57;;;11.80;88.40;;;;;;5072199;28;20028;-35
2024/03/21 03:57:48;;;;;;;21.05;14.45;;;11.80;88.60;;;;;;5072320;28;20028;-36
2024/03/21 04:00:14;;;;;;;24.65;16.23;;;11.70;88.90;;;;;;5071672;28;20028;-36
2024/03/21 04:02:43;;;;;;;23.88;15.63;;;11.70;88.70;;;;;;5071517;28;20028;-36
2024/03/21 04:05:09;;;;;;;22.13;15.50;;;11.80;88.90;;;;;;5071853;28;20020;-36
2024/03/21 04:07:36;;;;;;;22.38;15.27;;;11.70;88.80;;;;;;5072141;28;20094;-35
2024/03/21 04:10:02;;;;;;;23.27;16.02;;;11.70;88.90;;;;;;5072115;28;20019;-35
2024/03/21 04:12:28;;;;;;;21.35;16.15;;;11.70;89.20;;;;;;5071948;28;20033;-35
2024/03/21 04:14:54;;;;;;;24.02;15.90;;;11.70;89.20;;;;;;5071686;28;20150;-36
2024/03/21 04:17:20;;;;;;;21.02;15.35;;;11.70;89.50;;;;;;5071711;28;20028;-31
2024/03/21 04:19:46;;;;;;;21.05;16.00;;;11.60;89.50;;;;;;5071568;28;20021;-30
2024/03/21 04:22:11;;;;;;;22.58;15.25;;;11.60;89.50;;;;;;5071456;28;20032;-32
2024/03/21 04:24:37;;;;;;;18.77;13.88;;;11.60;89.50;;;;;;5071762;28;20032;-31
2024/03/21 04:27:03;;;;;;;18.58;13.45;;;11.60;89.60;;;;;;5071584;28;20534;-31
2024/03/21 04:29:29;;;;;;;17.92;12.82;;;11.60;89.50;;;;;;5071655;28;20059;-30
2024/03/21 04:31:55;;;;;;;18.17;12.70;;;11.70;89.80;;;;;;5071693;28;20395;-34
2024/03/21 04:34:20;;;;;;;17.95;13.10;;;11.60;89.40;;;;;;5071759;28;20048;-30
2024/03/21 04:36:46;;;;;;;19.75;13.52;;;11.70;89.70;;;;;;5071265;28;20560;-32
2024/03/21 04:39:12;;;;;;;17.45;11.63;;;11.60;89.50;;;;;;5071676;28;20052;-30
2024/03/21 04:41:37;;;;;;;15.50;11.70;;;11.60;89.60;;;;;;5070094;28;20029;-29
2024/03/21 04:44:03;;;;;;;15.40;11.05;;;11.60;89.60;;;;;;5071456;28;20025;-31
2024/03/21 04:46:28;;;;;;;16.13;10.68;;;11.60;89.70;;;;;;5071578;28;20107;-32
2024/03/21 04:48:54;;;;;;;18.30;10.73;;;11.60;89.60;;;;;;5071139;28;20016;-30
2024/03/21 04:51:20;;;;;;;13.23;9.48;;;11.60;89.60;;;;;;5071313;28;20028;-31
2024/03/21 04:53:45;;;;;;;12.20;9.52;;;11.60;89.70;;;;;;5071137;28;20094;-31
2024/03/21 04:56:11;;;;;;;13.43;9.02;;;11.60;89.60;;;;;;5071130;28;20063;-33
2024/03/21 04:58:37;;;;;;;10.32;6.75;;;11.50;89.50;;;;;;5071476;28;20566;-32
2024/03/21 05:01:06;;;;;;;8.50;5.43;;;11.40;89.30;;;;;;5071007;28;20100;-35
2024/03/21 05:03:31;;;;;;;5.03;4.38;;;11.30;89.20;;;;;;5071586;28;20408;-30
2024/03/21 05:05:57;;;;;;;5.28;3.95;;;11.20;88.90;;;;;;5075500;28;20074;-34
2024/03/21 05:08:23;;;;;;;8.13;4.30;;;11.10;88.90;;;;;;5075445;28;20029;-31
2024/03/21 05:10:49;;;;;;;3.90;3.25;;;11.10;89.10;;;;;;5075055;28;20021;-30
2024/03/21 05:13:14;;;;;;;3.97;3.30;;;11.00;89.10;;;;;;5075076;28;20024;-32
2024/03/21 05:15:50;;;;;;;3.78;3.00;;;10.90;89.10;;;;;;5075187;28;20572;-35
2024/03/21 05:18:16;;;;;;;3.22;2.80;;;10.90;89.10;;;;;;5074998;28;20476;-38
2024/03/21 05:20:42;;;;;;;3.33;2.67;;;10.90;89.00;;;;;;5075020;28;20091;-34
2024/03/21 05:23:08;;;;;;;3.55;2.55;;;10.90;88.90;;;;;;5075063;28;20450;-32
2024/03/21 05:25:37;;;;;;;4.40;2.80;;;10.90;88.80;;;;;;5074956;28;20032;-32
2024/03/21 05:28:03;;;;;;;3.25;2.75;;;10.90;88.70;;;;;;5074983;28;20023;-32
2024/03/21 05:30:30;;;;;;;4.00;2.30;;;10.80;88.70;;;;;;5074812;28;20103;-31
2024/03/21 05:32:56;;;;;;;4.78;2.70;;;10.80;88.60;;;;;;5074597;28;20021;-34
2024/03/21 05:35:22;;;;;;;2.92;2.63;;;10.70;88.40;;;;;;5074979;28;20032;-31
2024/03/21 05:37:48;;;;;;;4.70;3.38;;;10.70;88.60;;;;;;5074926;28;20032;-32
2024/03/21 05:40:13;;;;;;;5.20;3.55;;;10.70;88.40;;;;;;5074752;28;20158;-34
2024/03/21 05:42:39;;;;;;;4.85;4.28;;;10.70;88.20;;;;;;5074394;28;20392;-30
2024/03/21 05:45:05;;;;;;;4.55;4.15;;;10.60;87.80;;;;;;5074449;28;20024;-33
2024/03/21 05:47:31;;;;;;;5.13;4.10;;;10.60;87.90;;;;;;5074777;28;20080;-31
2024/03/21 05:49:56;;;;;;;4.97;4.47;;;10.50;87.90;;;;;;5074566;28;20021;-30
2024/03/21 05:52:22;;;;;;;5.32;4.53;;;10.50;87.80;;;;;;5074245;28;20020;-35
2024/03/21 05:54:49;;;;;;;5.13;4.57;;;10.60;87.70;;;;;;5074683;28;20099;-32
2024/03/21 05:57:14;;;;;;;5.72;4.80;;;10.50;87.50;;;;;;5074633;28;20028;-31
2024/03/21 05:59:40;;;;;;;7.63;5.50;;;10.50;87.50;;;;;;5074331;28;20028;-31
2024/03/21 06:02:06;;;;;;;11.25;5.90;;;10.50;87.30;;;;;;5073801;28;20063;-43
2024/03/21 06:04:31;;;;;;;5.80;5.00;;;10.40;87.10;;;;;;5074459;28;20021;-31
2024/03/21 06:06:57;;;;;;;8.65;4.90;;;10.40;87.00;;;;;;5073959;28;20477;-32
2024/03/21 06:09:24;;;;;;;6.85;4.85;;;10.30;86.80;;;;;;5074272;28;20021;-32
2024/03/21 06:11:50;;;;;;;6.25;3.88;;;10.30;86.60;;;;;;5073943;28;20045;-33
2024/03/21 06:14:15;;;;;;;4.25;3.22;;;10.20;86.60;;;;;;5073812;28;20039;-32
2024/03/21 06:16:41;;;;;;;6.57;3.08;;;10.20;86.60;;;;;;5073459;28;20107;-36
2024/03/21 06:19:07;;;;;;;4.30;2.90;;;10.20;86.50;;;;;;5072387;28;20025;-31
2024/03/21 06:21:32;;;;;;;5.75;2.28;;;10.20;86.50;;;;;;5073903;28;20020;-33
2024/03/21 06:23:58;;;;;;;5.40;2.60;;;10.20;86.60;;;;;;5073903;28;20084;-30
2024/03/21 06:26:23;;;;;;;6.38;2.47;;;10.20;86.50;;;;;;5073676;28;20024;-33
2024/03/21 06:28:49;;;;;;;2.38;2.15;;;10.20;86.40;;;;;;5073751;28;20385;-32
2024/03/21 06:31:14;;;;;;;3.38;1.98;;;10.20;86.40;;;;;;5073542;28;20113;-32
2024/03/21 06:33:40;;;;;;;4.28;1.88;;;10.30;86.30;;;;;;5074361;28;20016;-31
2024/03/21 06:36:06;;;;;;;3.20;1.60;;;10.30;86.20;;;;;;5073404;28;20048;-30
2024/03/21 06:38:31;;;;;;;2.78;1.75;;;10.30;86.10;;;;;;5073550;28;20103;-32
2024/03/21 06:40:57;;;;;;;2.90;1.73;;;10.30;86.10;;;;;;5073546;28;20150;-30
2024/03/21 06:43:23;;;;;;;5.03;2.17;;;10.30;86.00;;;;;;5073760;28;20027;-36
2024/03/21 06:45:58;;;;;;;3.80;2.00;;;10.30;85.80;;;;;;5073374;28;20020;-33
2024/03/21 06:48:24;;;;;;;3.28;1.50;;;10.30;85.70;;;;;;5073465;28;20048;-32
2024/03/21 06:50:50;;;;;;;5.40;1.75;;;10.30;85.30;;;;;;5071693;28;20488;-33
2024/03/21 06:53:16;;;;;;;5.50;1.35;;;10.20;85.50;;;;;;5073521;28;20412;-33
2024/03/21 06:55:42;;;;;;;4.15;1.30;;;10.20;85.30;;;;;;5073217;28;20012;-34
2024/03/21 06:58:08;;;;;;;4.22;1.38;;;10.20;85.50;;;;;;5073391;28;20100;-32
2024/03/21 07:00:33;;;;;;;3.08;1.17;;;10.30;85.30;;;;;;5073320;28;20485;-37
2024/03/21 07:02:59;;;;;;;2.78;1.00;;;10.30;85.00;;;;;;5072692;28;20484;-40
2024/03/21 07:05:26;;;;;;;2.55;1.20;;;10.30;85.00;;;;;;5072641;28;20025;-39
2024/03/21 07:07:52;;;;;;;2.97;0.93;;;10.30;84.90;;;;;;5073078;28;20088;-34
2024/03/21 07:10:21;;;;;;;5.07;1.20;;;10.30;84.80;;;;;;5072952;28;20047;-42
2024/03/21 07:12:47;;;;;;;3.70;1.00;;;10.30;84.90;;;;;;5073037;28;20426;-38
2024/03/21 07:15:14;;;;;;;4.78;1.15;;;10.40;84.80;;;;;;5072796;28;20051;-34
2024/03/21 07:17:41;;;;;;;2.67;0.95;;;10.30;84.30;;;;;;5072699;28;20024;-36
2024/03/21 07:20:07;;;;;;;3.00;1.05;;;10.30;84.40;;;;;;5072642;28;20109;-35
2024/03/21 07:22:32;;;;;;;4.70;1.15;;;10.30;84.20;;;;;;5072607;28;20017;-35
2024/03/21 07:24:58;;;;;;;2.40;1.08;;;10.20;84.30;;;;;;5072536;28;20031;-37
2024/03/21 07:27:24;;;;;;;3.22;1.00;;;10.20;84.50;;;;;;5071661;28;20020;-37
2024/03/21 07:29:49;;;;;;;3.92;0.95;;;10.30;84.40;;;;;;5072583;28;20021;-38
2024/03/21 07:32:15;;;;;;;3.92;1.00;;;10.30;84.30;;;;;;5072351;28;20484;-35
2024/03/21 07:34:40;;;;;;;4.53;1.15;;;10.40;84.10;;;;;;5072456;28;20052;-34
2024/03/21 07:37:06;;;;;;;4.22;0.90;;;10.40;83.90;;;;;;5072235;28;20050;-37
2024/03/21 07:39:33;;;;;;;3.25;0.80;;;10.40;84.00;;;;;;5072371;28;20021;-33
2024/03/21 07:41:59;;;;;;;4.13;1.20;;;10.40;83.80;;;;;;5072104;28;20028;-31
2024/03/21 07:44:25;;;;;;;6.03;1.30;;;10.40;83.70;;;;;;5070890;28;20008;-35
2024/03/21 07:46:51;;;;;;;2.92;1.13;;;10.40;83.60;;;;;;5072150;28;20072;-33
2024/03/21 07:49:16;;;;;;;3.55;1.30;;;10.50;83.70;;;;;;5071996;28;20025;-31
2024/03/21 07:51:42;;;;;;;3.20;1.38;;;10.50;83.40;;;;;;5071974;28;20031;-33
2024/03/21 07:54:07;;;;;;;3.85;1.05;;;10.50;83.40;;;;;;5072004;28;20036;-33
2024/03/21 07:56:33;;;;;;;3.92;1.20;;;10.50;83.40;;;;;;5072014;28;20022;-30
2024/03/21 07:58:59;;;;;;;6.47;1.48;;;10.50;83.00;;;;;;5072296;28;20081;-30
2024/03/21 08:01:25;;;;;;;5.75;1.23;;;10.50;83.20;;;;;;5071535;28;20036;-32
2024/03/21 08:03:52;;;;;;;4.15;1.10;;;10.50;83.10;;;;;;5070842;28;20035;-31
2024/03/21 08:06:17;;;;;;;5.85;1.10;;;10.50;83.20;;;;;;5072055;28;20219;-30
2024/03/21 08:08:44;;;;;;;5.20;1.35;;;10.60;83.10;;;;;;5071781;28;20122;-31
2024/03/21 08:11:10;;;;;;;5.55;1.20;;;10.70;82.70;;;;;;5071714;28;20044;-34
2024/03/21 08:13:36;;;;;;;3.15;1.05;;;10.80;83.30;;;;;;5071743;28;20025;-35
2024/03/21 08:16:02;;;;;;;4.20;1.23;;;10.80;82.40;;;;;;5071615;28;20078;-31
2024/03/21 08:18:27;;;;;;;4.82;1.30;;;10.90;82.20;;;;;;5071490;28;20028;-31
2024/03/21 08:20:53;;;;;;;6.55;1.67;;;10.90;82.00;;;;;;5071459;28;20017;-33
2024/03/21 08:23:19;;;;;;;4.60;1.20;;;10.90;81.90;;;;;;5071696;28;20024;-32
2024/03/21 08:25:45;;;;;;;4.30;1.25;;;11.00;81.40;;;;;;5071914;28;20016;-36
2024/03/21 08:28:11;;;;;;;3.55;1.05;;;11.00;81.50;;;;;;5071616;28;20108;-39
2024/03/21 08:30:43;;;;;;;2.78;0.95;;;10.90;81.90;;;;;;5071761;28;20017;-31
2024/03/21 08:33:14;;;;;;;4.72;1.20;;;11.00;81.40;;;;;;5071829;28;20043;-31
2024/03/21 08:35:41;;;;;;;7.32;1.00;;;11.10;81.10;;;;;;5071555;28;20025;-31
2024/03/21 08:38:06;;;;;;;4.72;1.40;;;11.10;81.40;;;;;;5071734;28;20044;-33
2024/03/21 08:40:32;;;;;;;4.05;1.40;;;11.20;81.10;;;;;;5070992;28;20567;-31
2024/03/21 08:42:58;;;;;;;6.18;1.20;;;11.30;81.00;;;;;;5071464;28;20028;-31
2024/03/21 08:45:24;;;;;;;4.22;1.10;;;11.40;80.80;;;;;;5071589;28;20016;-40
2024/03/21 08:47:50;;;;;;;4.03;1.33;;;11.50;80.60;;;;;;5071104;28;20025;-30
2024/03/21 08:50:16;;;;;;;2.28;1.08;;;11.60;80.20;;;;;;5071550;28;20025;-29
2024/03/21 08:52:42;;;;;;;3.10;1.25;;;11.60;80.00;;;;;;5069799;28;20481;-32
2024/03/21 08:55:07;;;;;;;4.88;1.30;;;11.60;79.70;;;;;;5071061;28;20028;-36
2024/03/21 08:57:33;;;;;;;3.72;1.08;;;11.60;79.80;;;;;;5071417;28;20024;-32
2024/03/21 08:59:59;;;;;;;7.40;1.48;;;11.70;79.90;;;;;;5071568;28;20473;-37
2024/03/21 09:02:25;;;;;;;7.45;1.60;;;11.80;79.70;;;;;;5070936;28;20086;-32
2024/03/21 09:04:51;;;;;;;5.50;1.55;;;11.90;79.30;;;;;;5071263;28;20431;-31
2024/03/21 09:07:17;;;;;;;3.83;1.52;;;12.00;79.10;;;;;;5071374;28;20021;-31
2024/03/21 09:09:42;;;;;;;4.45;1.38;;;12.00;78.80;;;;;;5071206;28;20013;-30
2024/03/21 09:12:08;;;;;;;4.72;1.48;;;12.10;78.70;;;;;;5071133;28;20086;-31
2024/03/21 09:14:33;;;;;;;3.45;1.60;;;12.10;78.60;;;;;;5070957;28;20051;-33
2024/03/21 09:16:59;;;;;;;2.55;1.20;;;12.10;78.40;;;;;;5071086;28;20078;-32
2024/03/21 09:19:25;;;;;;;8.13;1.40;;;12.10;78.10;;;;;;5069652;28;20024;-35
2024/03/21 09:21:50;;;;;;;4.47;1.55;;;12.10;77.80;;;;;;5070932;28;20028;-30
2024/03/21 09:24:16;;;;;;;3.65;1.80;;;12.20;77.50;;;;;;5071040;28;20013;-30
2024/03/21 09:26:42;;;;;;;4.78;1.70;;;12.20;77.60;;;;;;5071010;28;20028;-31
2024/03/21 09:29:08;;;;;;;5.53;1.70;;;12.10;77.20;;;;;;5071321;28;20096;-31
2024/03/21 09:31:34;;;;;;;5.25;1.50;;;12.20;77.50;;;;;;5071033;28;20029;-34
2024/03/21 09:34:00;;;;;;;4.55;1.45;;;12.20;77.50;;;;;;5070905;28;20036;-37
2024/03/21 09:36:26;;;;;;;3.33;1.25;;;12.30;77.20;;;;;;5070783;28;20079;-31
2024/03/21 09:38:52;;;;;;;3.70;1.45;;;12.30;77.30;;;;;;5071285;28;20021;-36
2024/03/21 09:41:18;;;;;;;5.50;1.45;;;12.40;77.20;;;;;;5069383;28;20028;-39
2024/03/21 09:43:44;;;;;;;4.70;1.45;;;12.50;77.00;;;;;;5070961;28;20411;-31
2024/03/21 09:46:16;;;;;;;3.88;1.70;;;12.50;76.90;;;;;;5070860;28;20020;-31
2024/03/21 09:48:42;;;;;;;3.88;1.50;;;12.60;76.80;;;;;;5071160;28;20021;-30
2024/03/21 09:51:20;;;;;;;4.82;1.40;;;12.70;76.50;;;;;;5072021;28;20416;-34
2024/03/21 09:53:46;;;;;;;5.47;2.08;;;12.80;76.10;;;;;;5074614;28;20035;-33
2024/03/21 09:56:16;;;;;;;4.15;1.60;;;12.80;75.80;;;;;;5074357;28;20025;-33
2024/03/21 09:58:41;;;;;;;5.05;1.70;;;12.90;75.50;;;;;;5074289;28;20021;-30
2024/03/21 10:01:36;;;;;;;4.65;1.60;;;12.90;75.00;;;;;;5074055;28;20120;-34
2024/03/21 10:04:02;;;;;;;6.95;1.67;;;12.80;75.30;;;;;;5052849;28;20658;-35
2024/03/21 10:06:27;;;;;;;5.13;1.80;;;12.90;75.30;;;;;;5074032;28;20021;-33
2024/03/21 10:08:53;;;;;;;3.42;1.70;;;12.90;75.30;;;;;;5074418;28;20047;-30
2024/03/21 10:11:19;;;;;;;6.38;1.83;;;13.00;74.80;;;;;;5074007;28;20489;-36
2024/03/21 10:13:46;;;;;;;4.82;1.67;;;13.00;74.90;;;;;;5074375;28;20032;-33
2024/03/21 10:16:14;;;;;;;3.50;1.65;;;13.10;75.10;;;;;;5073334;28;20139;-31
2024/03/21 10:18:40;;;;;;;5.38;2.00;;;13.20;75.00;;;;;;5074047;28;20024;-35
2024/03/21 10:21:15;;;;;;;5.35;2.22;;;13.30;73.60;;;;;;5074073;28;20533;-30
2024/03/21 10:23:41;;;;;;;4.80;2.05;;;13.30;73.80;;;;;;5074183;28;20485;-29
2024/03/21 10:26:14;;;;;;;4.47;1.88;;;13.20;74.00;;;;;;5073698;28;20036;-31
2024/03/21 10:28:41;;;;;;;4.15;2.00;;;13.10;74.10;;;;;;5074368;28;20032;-33
2024/03/21 10:31:12;;;;;;;4.00;1.67;;;13.10;74.30;;;;;;5072194;28;20049;-38
2024/03/21 10:33:38;;;;;;;4.82;1.70;;;13.10;73.90;;;;;;5073624;28;20020;-36
2024/03/21 10:36:04;;;;;;;4.47;1.90;;;13.00;74.00;;;;;;5073625;28;20037;-35
2024/03/21 10:38:31;;;;;;;3.38;1.80;;;12.90;73.80;;;;;;5073908;28;20032;-34
2024/03/21 10:41:01;;;;;;;5.43;1.65;;;13.00;74.00;;;;;;5073244;28;20020;-39
2024/03/21 10:43:29;;;;;;;4.45;1.83;;;13.10;74.10;;;;;;5073325;28;20029;-35
2024/03/21 10:45:55;;;;;;;5.13;1.90;;;13.20;74.00;;;;;;5073414;28;20013;-33
2024/03/21 10:48:27;;;;;;;4.40;1.70;;;13.30;73.60;;;;;;5073631;28;20017;-35
2024/03/21 10:50:53;;;;;;;4.32;1.60;;;13.40;73.80;;;;;;5073261;28;20028;-34
2024/03/21 10:53:23;;;;;;;4.32;1.60;;;13.50;73.70;;;;;;5073567;28;20020;-47
2024/03/21 10:55:50;;;;;;;3.83;1.58;;;13.50;73.40;;;;;;5073251;28;20055;-32
2024/03/21 10:58:18;;;;;;;3.55;1.60;;;13.50;72.90;;;;;;5073462;28;20384;-31
2024/03/21 11:00:52;;;;;;;2.80;1.70;;;13.50;73.10;;;;;;5073136;28;20017;-30
2024/03/21 11:03:19;;;;;;;5.55;1.77;;;13.50;72.70;;;;;;5072851;28;20024;-32
2024/03/21 11:05:48;;;;;;;5.40;1.50;;;13.50;72.90;;;;;;5071467;28;20013;-31
2024/03/21 11:08:30;;;;;;;6.03;1.52;;;13.50;73.00;;;;;;5073022;28;20025;-31
2024/03/21 11:10:57;;;;;;;3.25;1.30;;;13.50;72.80;;;;;;5072941;28;20017;-32
2024/03/21 11:13:27;;;;;;;3.40;1.60;;;13.50;73.00;;;;;;5073052;28;20025;-34
2024/03/21 11:15:53;;;;;;;5.43;1.60;;;13.50;72.70;;;;;;5072941;28;20028;-33
2024/03/21 11:18:19;;;;;;;4.68;1.63;;;13.50;72.80;;;;;;5072563;28;20473;-33
2024/03/21 11:20:46;;;;;;;4.43;1.60;;;13.50;72.60;;;;;;5072925;28;20507;-31
2024/03/21 11:23:15;;;;;;;5.25;1.33;;;13.50;72.80;;;;;;5072956;28;20033;-34
2024/03/21 11:25:41;;;;;;;4.90;1.70;;;13.60;72.90;;;;;;5072591;28;20025;-31
2024/03/21 11:28:11;;;;;;;6.70;1.45;;;13.70;72.50;;;;;;5072651;28;20025;-32
2024/03/21 11:30:44;;;;;;;4.00;1.17;;;13.70;72.60;;;;;;5072987;28;20020;-33
2024/03/21 11:33:10;;;;;;;3.93;1.47;;;13.80;72.60;;;;;;5072841;28;20385;-31
2024/03/21 11:35:39;;;;;;;4.05;1.52;;;14.00;72.70;;;;;;5070671;28;20798;-31
2024/03/21 11:38:06;;;;;;;5.10;1.80;;;14.10;72.20;;;;;;5072587;28;20431;-34
2024/03/21 11:40:32;;;;;;;3.80;1.67;;;14.10;71.90;;;;;;5072591;28;20464;-32
2024/03/21 11:43:05;;;;;;;4.43;1.60;;;14.20;71.90;;;;;;5072389;28;20036;-31
2024/03/21 11:45:31;;;;;;;3.10;1.60;;;14.30;71.50;;;;;;5072273;28;20093;-31
2024/03/21 11:48:11;;;;;;;3.70;1.60;;;14.30;71.60;;;;;;5072438;28;20103;-32
2024/03/21 11:50:38;;;;;;;3.80;1.50;;;14.30;71.40;;;;;;5072489;28;20385;-34
2024/03/21 11:53:04;;;;;;;4.63;1.80;;;14.40;71.50;;;;;;5072168;28;20458;-32
2024/03/21 11:55:30;;;;;;;4.70;1.80;;;14.40;71.20;;;;;;5072153;28;20024;-33
2024/03/21 11:57:55;;;;;;;3.35;1.67;;;14.50;71.00;;;;;;5070783;28;20538;-33
2024/03/21 12:00:25;;;;;;;7.43;1.60;;;14.40;70.30;;;;;;5072313;28;20055;-39
2024/03/21 12:02:51;;;;;;;4.80;1.50;;;14.30;70.40;;;;;;5072018;28;20025;-33
2024/03/21 12:05:17;;;;;;;3.80;1.40;;;14.30;70.50;;;;;;5071868;28;20052;-34
2024/03/21 12:07:43;;;;;;;3.25;1.50;;;14.20;70.50;;;;;;5072193;28;20098;-35
2024/03/21 12:10:09;;;;;;;2.05;1.30;;;14.20;70.70;;;;;;5071854;28;20024;-31
2024/03/21 12:12:35;;;;;;;6.95;1.83;;;14.30;70.90;;;;;;5072116;28;20031;-34
2024/03/21 12:15:01;;;;;;;6.38;2.20;;;14.30;70.60;;;;;;5071395;28;20028;-31
2024/03/21 12:17:27;;;;;;;3.78;1.52;;;14.30;70.50;;;;;;5071924;28;20508;-35
2024/03/21 12:19:53;;;;;;;4.15;1.70;;;14.20;70.70;;;;;;5071814;28;20082;-33
2024/03/21 12:22:19;;;;;;;6.55;1.70;;;14.20;70.60;;;;;;5071548;28;20029;-32
2024/03/21 12:24:45;;;;;;;6.78;1.70;;;14.20;70.70;;;;;;5071944;28;20029;-33
2024/03/21 12:27:11;;;;;;;3.70;1.30;;;14.30;70.70;;;;;;5071731;28;20043;-31
2024/03/21 12:29:36;;;;;;;5.57;1.63;;;14.40;70.80;;;;;;5071804;28;20017;-31
2024/03/21 12:32:02;;;;;;;2.50;1.20;;;14.40;70.70;;;;;;5071859;28;20027;-32
2024/03/21 12:34:28;;;;;;;4.32;1.60;;;14.50;70.50;;;;;;5071635;28;20029;-32
2024/03/21 12:36:53;;;;;;;4.68;1.50;;;14.50;70.40;;;;;;5070153;28;20051;-34